sensor_id;sensor_type;location;lat;lon;timestamp;temperature;humidity
52879;DHT22;38747;53.140;6.498;2022-12-17T00:00:44;-1.50;99.90
52879;DHT22;38747;53.140;6.498;2022-12-17T00:03:28;-1.50;99.90
52879;DHT22;38747;53.140;6.498;2022-12-17T00:06:12;-1.50;99.90
52879;DHT22;38747;53.140;6.498;2022-12-17T00:08:57;-1.50;99.90
52879;DHT22;38747;53.140;6.498;2022-12-17T00:11:41;-1.50;99.90
52879;DHT22;38747;53.140;6.498;2022-12-17T00:14:25;-1.50;99.90
52879;DHT22;38747;53.140;6.498;2022-12-17T00:17:09;-1.60;99.90
52879;DHT22;38747;53.140;6.498;2022-12-17T00:19:53;-1.70;99.90
52879;DHT22;38747;53.140;6.498;2022-12-17T00:22:37;-1.70;99.90
52879;DHT22;38747;53.140;6.498;2022-12-17T00:25:24;-1.70;99.90
52879;DHT22;38747;53.140;6.498;2022-12-17T00:28:10;-1.70;99.90
52879;DHT22;38747;53.140;6.498;2022-12-17T00:30:54;-1.70;99.90
52879;DHT22;38747;53.140;6.498;2022-12-17T00:33:38;-1.70;99.90
52879;DHT22;38747;53.140;6.498;2022-12-17T00:36:22;-1.70;99.90
52879;DHT22;38747;53.140;6.498;2022-12-17T00:39:07;-1.80;99.90
52879;DHT22;38747;53.140;6.498;2022-12-17T00:41:51;-1.80;99.90
52879;DHT22;38747;53.140;6.498;2022-12-17T00:44:35;-1.70;99.90
52879;DHT22;38747;53.140;6.498;2022-12-17T00:47:33;-1.80;99.90
52879;DHT22;38747;53.140;6.498;2022-12-17T00:50:17;-1.80;99.90
52879;DHT22;38747;53.140;6.498;2022-12-17T00:53:01;-1.80;99.90
52879;DHT22;38747;53.140;6.498;2022-12-17T00:55:45;-1.90;99.90
52879;DHT22;38747;53.140;6.498;2022-12-17T00:58:29;-1.80;99.90
52879;DHT22;38747;53.140;6.498;2022-12-17T01:01:13;-1.80;99.90
52879;DHT22;38747;53.140;6.498;2022-12-17T01:03:58;-1.80;99.90
52879;DHT22;38747;53.140;6.498;2022-12-17T01:06:42;-1.80;99.90
52879;DHT22;38747;53.140;6.498;2022-12-17T01:09:26;-1.90;99.90
52879;DHT22;38747;53.140;6.498;2022-12-17T01:12:10;-1.90;99.90
52879;DHT22;38747;53.140;6.498;2022-12-17T01:14:54;-1.90;99.90
52879;DHT22;38747;53.140;6.498;2022-12-17T01:17:38;-1.80;99.90
52879;DHT22;38747;53.140;6.498;2022-12-17T01:20:23;-1.80;99.90
52879;DHT22;38747;53.140;6.498;2022-12-17T01:23:07;-1.80;99.90
52879;DHT22;38747;53.140;6.498;2022-12-17T01:25:55;-1.80;99.90
52879;DHT22;38747;53.140;6.498;2022-12-17T01:28:40;-1.80;99.90
52879;DHT22;38747;53.140;6.498;2022-12-17T01:31:24;-1.80;99.90
52879;DHT22;38747;53.140;6.498;2022-12-17T01:34:08;-1.80;99.90
52879;DHT22;38747;53.140;6.498;2022-12-17T01:36:52;-1.80;99.90
52879;DHT22;38747;53.140;6.498;2022-12-17T01:39:36;-1.80;99.90
52879;DHT22;38747;53.140;6.498;2022-12-17T01:42:21;-1.80;99.90
52879;DHT22;38747;53.140;6.498;2022-12-17T01:45:10;-1.80;99.90
52879;DHT22;38747;53.140;6.498;2022-12-17T01:47:59;-1.80;99.90
52879;DHT22;38747;53.140;6.498;2022-12-17T01:50:48;-1.80;99.90
52879;DHT22;38747;53.140;6.498;2022-12-17T01:53:36;-1.80;99.90
52879;DHT22;38747;53.140;6.498;2022-12-17T01:56:21;-1.80;99.90
52879;DHT22;38747;53.140;6.498;2022-12-17T01:59:07;-1.80;99.90
52879;DHT22;38747;53.140;6.498;2022-12-17T02:01:52;-1.80;99.90
52879;DHT22;38747;53.140;6.498;2022-12-17T02:04:36;-1.80;99.90
52879;DHT22;38747;53.140;6.498;2022-12-17T02:07:37;-1.80;99.90
52879;DHT22;38747;53.140;6.498;2022-12-17T02:13:30;-1.80;99.90
52879;DHT22;38747;53.140;6.498;2022-12-17T02:16:25;-1.70;99.90
52879;DHT22;38747;53.140;6.498;2022-12-17T02:22:31;-1.70;99.90
52879;DHT22;38747;53.140;6.498;2022-12-17T02:25:31;-1.70;99.90
52879;DHT22;38747;53.140;6.498;2022-12-17T02:28:20;-1.70;99.90
52879;DHT22;38747;53.140;6.498;2022-12-17T02:31:05;-1.70;99.90
52879;DHT22;38747;53.140;6.498;2022-12-17T02:33:51;-1.70;99.90
52879;DHT22;38747;53.140;6.498;2022-12-17T02:36:35;-1.70;99.90
52879;DHT22;38747;53.140;6.498;2022-12-17T02:39:19;-1.70;99.90
52879;DHT22;38747;53.140;6.498;2022-12-17T02:42:04;-1.70;99.90
52879;DHT22;38747;53.140;6.498;2022-12-17T02:44:48;-1.70;99.90
52879;DHT22;38747;53.140;6.498;2022-12-17T02:47:33;-1.70;99.90
52879;DHT22;38747;53.140;6.498;2022-12-17T02:50:18;-1.70;99.90
52879;DHT22;38747;53.140;6.498;2022-12-17T02:53:03;-1.70;99.90
52879;DHT22;38747;53.140;6.498;2022-12-17T02:55:47;-1.70;99.90
52879;DHT22;38747;53.140;6.498;2022-12-17T02:58:34;-1.70;99.90
52879;DHT22;38747;53.140;6.498;2022-12-17T03:01:18;-1.60;99.90
52879;DHT22;38747;53.140;6.498;2022-12-17T03:04:03;-1.60;99.90
52879;DHT22;38747;53.140;6.498;2022-12-17T03:06:47;-1.60;99.90
52879;DHT22;38747;53.140;6.498;2022-12-17T03:09:31;-1.60;99.90
52879;DHT22;38747;53.140;6.498;2022-12-17T03:12:15;-1.60;99.90
52879;DHT22;38747;53.140;6.498;2022-12-17T03:14:59;-1.60;99.90
52879;DHT22;38747;53.140;6.498;2022-12-17T03:17:43;-1.60;99.90
52879;DHT22;38747;53.140;6.498;2022-12-17T03:20:28;-1.60;99.90
52879;DHT22;38747;53.140;6.498;2022-12-17T03:23:12;-1.60;99.90
52879;DHT22;38747;53.140;6.498;2022-12-17T03:26:01;-1.60;99.90
52879;DHT22;38747;53.140;6.498;2022-12-17T03:28:46;-1.60;99.90
52879;DHT22;38747;53.140;6.498;2022-12-17T03:31:30;-1.60;99.90
52879;DHT22;38747;53.140;6.498;2022-12-17T03:34:15;-1.60;99.90
52879;DHT22;38747;53.140;6.498;2022-12-17T03:36:59;-1.60;99.90
52879;DHT22;38747;53.140;6.498;2022-12-17T03:39:43;-1.60;99.90
52879;DHT22;38747;53.140;6.498;2022-12-17T03:42:27;-1.60;99.90
52879;DHT22;38747;53.140;6.498;2022-12-17T03:45:11;-1.60;99.90
52879;DHT22;38747;53.140;6.498;2022-12-17T03:48:06;-1.60;99.90
52879;DHT22;38747;53.140;6.498;2022-12-17T03:50:51;-1.60;99.90
52879;DHT22;38747;53.140;6.498;2022-12-17T03:53:35;-1.60;99.90
52879;DHT22;38747;53.140;6.498;2022-12-17T03:56:19;-1.50;99.90
52879;DHT22;38747;53.140;6.498;2022-12-17T03:59:03;-1.60;99.90
52879;DHT22;38747;53.140;6.498;2022-12-17T04:01:47;-1.60;99.90
52879;DHT22;38747;53.140;6.498;2022-12-17T04:04:32;-1.60;99.90
52879;DHT22;38747;53.140;6.498;2022-12-17T04:07:16;-1.50;99.90
52879;DHT22;38747;53.140;6.498;2022-12-17T04:10:00;-1.50;99.90
52879;DHT22;38747;53.140;6.498;2022-12-17T04:12:44;-1.50;99.90
52879;DHT22;38747;53.140;6.498;2022-12-17T04:15:28;-1.50;99.90
52879;DHT22;38747;53.140;6.498;2022-12-17T04:18:12;-1.50;99.90
52879;DHT22;38747;53.140;6.498;2022-12-17T04:20:57;-1.50;99.90
52879;DHT22;38747;53.140;6.498;2022-12-17T04:23:41;-1.50;99.90
52879;DHT22;38747;53.140;6.498;2022-12-17T04:26:25;-1.50;99.90
52879;DHT22;38747;53.140;6.498;2022-12-17T04:29:09;-1.50;99.90
52879;DHT22;38747;53.140;6.498;2022-12-17T04:31:53;-1.50;99.90
52879;DHT22;38747;53.140;6.498;2022-12-17T04:34:37;-1.50;99.90
52879;DHT22;38747;53.140;6.498;2022-12-17T04:37:22;-1.50;99.90
52879;DHT22;38747;53.140;6.498;2022-12-17T04:40:07;-1.50;99.90
52879;DHT22;38747;53.140;6.498;2022-12-17T04:42:52;-1.50;99.90
52879;DHT22;38747;53.140;6.498;2022-12-17T04:45:36;-1.50;99.90
52879;DHT22;38747;53.140;6.498;2022-12-17T04:48:20;-1.50;99.90
52879;DHT22;38747;53.140;6.498;2022-12-17T04:51:04;-1.50;99.90
52879;DHT22;38747;53.140;6.498;2022-12-17T04:53:49;-1.50;99.90
52879;DHT22;38747;53.140;6.498;2022-12-17T04:56:44;-1.50;99.90
52879;DHT22;38747;53.140;6.498;2022-12-17T04:59:28;-1.50;99.90
52879;DHT22;38747;53.140;6.498;2022-12-17T05:02:12;-1.50;99.90
52879;DHT22;38747;53.140;6.498;2022-12-17T05:04:57;-1.50;99.90
52879;DHT22;38747;53.140;6.498;2022-12-17T05:07:41;-1.50;99.90
52879;DHT22;38747;53.140;6.498;2022-12-17T05:10:25;-1.50;99.90
52879;DHT22;38747;53.140;6.498;2022-12-17T05:13:09;-1.40;99.90
52879;DHT22;38747;53.140;6.498;2022-12-17T05:15:56;-1.40;99.90
52879;DHT22;38747;53.140;6.498;2022-12-17T05:18:40;-1.40;99.90
52879;DHT22;38747;53.140;6.498;2022-12-17T05:21:38;-1.50;99.90
52879;DHT22;38747;53.140;6.498;2022-12-17T05:24:22;-1.40;99.90
52879;DHT22;38747;53.140;6.498;2022-12-17T05:27:06;-1.40;99.90
52879;DHT22;38747;53.140;6.498;2022-12-17T05:29:50;-1.40;99.90
52879;DHT22;38747;53.140;6.498;2022-12-17T05:32:34;-1.40;99.90
52879;DHT22;38747;53.140;6.498;2022-12-17T05:35:18;-1.40;99.90
52879;DHT22;38747;53.140;6.498;2022-12-17T05:38:07;-1.40;99.90
52879;DHT22;38747;53.140;6.498;2022-12-17T05:40:55;-1.40;99.90
52879;DHT22;38747;53.140;6.498;2022-12-17T05:43:39;-1.30;99.90
52879;DHT22;38747;53.140;6.498;2022-12-17T05:46:23;-1.40;99.90
52879;DHT22;38747;53.140;6.498;2022-12-17T05:49:08;-1.30;99.90
52879;DHT22;38747;53.140;6.498;2022-12-17T05:51:52;-1.30;99.90
52879;DHT22;38747;53.140;6.498;2022-12-17T05:54:36;-1.30;99.90
52879;DHT22;38747;53.140;6.498;2022-12-17T05:57:20;-1.30;99.90
52879;DHT22;38747;53.140;6.498;2022-12-17T06:00:05;-1.40;99.90
52879;DHT22;38747;53.140;6.498;2022-12-17T06:02:59;-1.40;99.90
52879;DHT22;38747;53.140;6.498;2022-12-17T06:05:44;-1.40;99.90
52879;DHT22;38747;53.140;6.498;2022-12-17T06:08:28;-1.40;99.90
52879;DHT22;38747;53.140;6.498;2022-12-17T06:11:12;-1.40;99.90
52879;DHT22;38747;53.140;6.498;2022-12-17T06:13:56;-1.40;99.90
52879;DHT22;38747;53.140;6.498;2022-12-17T06:16:40;-1.40;99.90
52879;DHT22;38747;53.140;6.498;2022-12-17T06:19:24;-1.40;99.90
52879;DHT22;38747;53.140;6.498;2022-12-17T06:22:09;-1.40;99.90
52879;DHT22;38747;53.140;6.498;2022-12-17T06:24:53;-1.40;99.90
52879;DHT22;38747;53.140;6.498;2022-12-17T06:27:38;-1.40;99.90
52879;DHT22;38747;53.140;6.498;2022-12-17T06:30:22;-1.40;99.90
52879;DHT22;38747;53.140;6.498;2022-12-17T06:33:08;-1.30;99.90
52879;DHT22;38747;53.140;6.498;2022-12-17T06:35:53;-1.30;99.90
52879;DHT22;38747;53.140;6.498;2022-12-17T06:38:37;-1.40;99.90
52879;DHT22;38747;53.140;6.498;2022-12-17T06:41:21;-1.30;99.90
52879;DHT22;38747;53.140;6.498;2022-12-17T06:44:05;-1.30;99.90
52879;DHT22;38747;53.140;6.498;2022-12-17T06:46:50;-1.40;99.90
52879;DHT22;38747;53.140;6.498;2022-12-17T06:49:34;-1.40;99.90
52879;DHT22;38747;53.140;6.498;2022-12-17T06:52:18;-1.30;99.90
52879;DHT22;38747;53.140;6.498;2022-12-17T06:55:02;-1.30;99.90
52879;DHT22;38747;53.140;6.498;2022-12-17T06:57:47;-1.40;99.90
52879;DHT22;38747;53.140;6.498;2022-12-17T07:00:31;-1.30;99.90
52879;DHT22;38747;53.140;6.498;2022-12-17T07:03:15;-1.30;99.90
52879;DHT22;38747;53.140;6.498;2022-12-17T07:06:00;-1.30;99.90
52879;DHT22;38747;53.140;6.498;2022-12-17T07:08:45;-1.30;99.90
52879;DHT22;38747;53.140;6.498;2022-12-17T07:11:29;-1.30;99.90
52879;DHT22;38747;53.140;6.498;2022-12-17T07:14:13;-1.30;99.90
52879;DHT22;38747;53.140;6.498;2022-12-17T07:16:57;-1.30;99.90
52879;DHT22;38747;53.140;6.498;2022-12-17T07:19:41;-1.30;99.90
52879;DHT22;38747;53.140;6.498;2022-12-17T07:22:26;-1.30;99.90
52879;DHT22;38747;53.140;6.498;2022-12-17T07:25:10;-1.30;99.90
52879;DHT22;38747;53.140;6.498;2022-12-17T07:27:55;-1.30;99.90
52879;DHT22;38747;53.140;6.498;2022-12-17T07:30:40;-1.30;99.90
52879;DHT22;38747;53.140;6.498;2022-12-17T07:33:24;-1.30;99.90
52879;DHT22;38747;53.140;6.498;2022-12-17T07:36:08;-1.30;99.90
52879;DHT22;38747;53.140;6.498;2022-12-17T07:38:52;-1.30;99.90
52879;DHT22;38747;53.140;6.498;2022-12-17T07:41:37;-1.30;99.90
52879;DHT22;38747;53.140;6.498;2022-12-17T07:44:21;-1.40;99.90
52879;DHT22;38747;53.140;6.498;2022-12-17T07:47:05;-1.40;99.90
52879;DHT22;38747;53.140;6.498;2022-12-17T07:49:49;-1.40;99.90
52879;DHT22;38747;53.140;6.498;2022-12-17T07:52:33;-1.40;99.90
52879;DHT22;38747;53.140;6.498;2022-12-17T07:55:17;-1.40;99.90
52879;DHT22;38747;53.140;6.498;2022-12-17T07:58:04;-1.40;99.90
52879;DHT22;38747;53.140;6.498;2022-12-17T08:00:48;-1.40;99.90
52879;DHT22;38747;53.140;6.498;2022-12-17T08:03:32;-1.30;99.90
52879;DHT22;38747;53.140;6.498;2022-12-17T08:06:16;-1.40;99.90
52879;DHT22;38747;53.140;6.498;2022-12-17T08:09:01;-1.30;99.90
52879;DHT22;38747;53.140;6.498;2022-12-17T08:11:45;-1.40;99.90
52879;DHT22;38747;53.140;6.498;2022-12-17T08:14:30;-1.30;99.90
52879;DHT22;38747;53.140;6.498;2022-12-17T08:17:14;-1.40;99.90
52879;DHT22;38747;53.140;6.498;2022-12-17T08:19:58;-1.40;99.90
52879;DHT22;38747;53.140;6.498;2022-12-17T08:22:42;-1.40;99.90
52879;DHT22;38747;53.140;6.498;2022-12-17T08:25:26;-1.50;99.90
52879;DHT22;38747;53.140;6.498;2022-12-17T08:28:10;-1.50;99.90
52879;DHT22;38747;53.140;6.498;2022-12-17T08:30:54;-1.40;99.90
52879;DHT22;38747;53.140;6.498;2022-12-17T08:33:39;-1.40;99.90
52879;DHT22;38747;53.140;6.498;2022-12-17T08:36:23;-1.50;99.90
52879;DHT22;38747;53.140;6.498;2022-12-17T08:39:07;-1.50;99.90
52879;DHT22;38747;53.140;6.498;2022-12-17T08:41:51;-1.50;99.90
52879;DHT22;38747;53.140;6.498;2022-12-17T08:44:35;-1.40;99.90
52879;DHT22;38747;53.140;6.498;2022-12-17T08:47:19;-1.50;99.90
52879;DHT22;38747;53.140;6.498;2022-12-17T08:50:05;-1.50;99.90
52879;DHT22;38747;53.140;6.498;2022-12-17T08:52:59;-1.40;99.90
52879;DHT22;38747;53.140;6.498;2022-12-17T08:55:43;-1.40;99.90
52879;DHT22;38747;53.140;6.498;2022-12-17T08:58:27;-1.40;99.90
52879;DHT22;38747;53.140;6.498;2022-12-17T09:01:11;-1.40;99.90
52879;DHT22;38747;53.140;6.498;2022-12-17T09:03:56;-1.30;99.90
52879;DHT22;38747;53.140;6.498;2022-12-17T09:06:40;-1.30;99.90
52879;DHT22;38747;53.140;6.498;2022-12-17T09:09:25;-1.30;99.90
52879;DHT22;38747;53.140;6.498;2022-12-17T09:12:09;-1.30;99.90
52879;DHT22;38747;53.140;6.498;2022-12-17T09:14:53;-1.30;99.90
52879;DHT22;38747;53.140;6.498;2022-12-17T09:17:37;-1.30;99.90
52879;DHT22;38747;53.140;6.498;2022-12-17T09:20:21;-1.30;99.90
52879;DHT22;38747;53.140;6.498;2022-12-17T09:23:06;-1.30;99.90
52879;DHT22;38747;53.140;6.498;2022-12-17T09:25:55;-1.30;99.90
52879;DHT22;38747;53.140;6.498;2022-12-17T09:28:40;-1.30;99.90
52879;DHT22;38747;53.140;6.498;2022-12-17T09:31:24;-1.30;99.90
52879;DHT22;38747;53.140;6.498;2022-12-17T09:34:08;-1.40;99.90
52879;DHT22;38747;53.140;6.498;2022-12-17T09:36:52;-1.50;99.90
52879;DHT22;38747;53.140;6.498;2022-12-17T09:39:37;-1.50;99.90
52879;DHT22;38747;53.140;6.498;2022-12-17T09:42:26;-1.50;99.90
52879;DHT22;38747;53.140;6.498;2022-12-17T09:45:22;-1.40;99.90
52879;DHT22;38747;53.140;6.498;2022-12-17T09:51:21;-1.40;99.90
52879;DHT22;38747;53.140;6.498;2022-12-17T09:54:53;-1.30;99.90
52879;DHT22;38747;53.140;6.498;2022-12-17T09:57:22;-1.30;99.90
52879;DHT22;38747;53.140;6.498;2022-12-17T10:03:02;-1.30;99.90
52879;DHT22;38747;53.140;6.498;2022-12-17T10:05:46;-1.30;99.90
52879;DHT22;38747;53.140;6.498;2022-12-17T10:08:34;-1.20;99.90
52879;DHT22;38747;53.140;6.498;2022-12-17T10:11:27;-1.20;99.90
52879;DHT22;38747;53.140;6.498;2022-12-17T10:14:20;-1.30;99.90
52879;DHT22;38747;53.140;6.498;2022-12-17T10:17:08;-1.20;99.90
52879;DHT22;38747;53.140;6.498;2022-12-17T10:19:56;-1.20;99.90
52879;DHT22;38747;53.140;6.498;2022-12-17T10:22:43;-1.30;99.90
52879;DHT22;38747;53.140;6.498;2022-12-17T10:25:27;-1.30;99.90
52879;DHT22;38747;53.140;6.498;2022-12-17T10:28:18;-1.30;99.90
52879;DHT22;38747;53.140;6.498;2022-12-17T10:31:10;-1.30;99.90
52879;DHT22;38747;53.140;6.498;2022-12-17T10:33:58;-1.20;99.90
52879;DHT22;38747;53.140;6.498;2022-12-17T10:36:48;-1.20;99.90
52879;DHT22;38747;53.140;6.498;2022-12-17T10:39:34;-1.10;99.90
52879;DHT22;38747;53.140;6.498;2022-12-17T10:42:23;-1.10;99.90
52879;DHT22;38747;53.140;6.498;2022-12-17T10:51:39;-1.10;99.90
52879;DHT22;38747;53.140;6.498;2022-12-17T10:54:27;-1.10;99.90
52879;DHT22;38747;53.140;6.498;2022-12-17T10:57:32;-1.10;99.90
52879;DHT22;38747;53.140;6.498;2022-12-17T11:00:20;-1.10;99.90
52879;DHT22;38747;53.140;6.498;2022-12-17T11:03:05;-1.10;99.90
52879;DHT22;38747;53.140;6.498;2022-12-17T11:05:51;-1.10;99.90
52879;DHT22;38747;53.140;6.498;2022-12-17T11:08:38;-1.00;99.90
52879;DHT22;38747;53.140;6.498;2022-12-17T11:11:24;-1.10;99.90
52879;DHT22;38747;53.140;6.498;2022-12-17T11:14:10;-1.00;99.90
52879;DHT22;38747;53.140;6.498;2022-12-17T11:17:15;-0.90;99.90
52879;DHT22;38747;53.140;6.498;2022-12-17T11:20:07;-0.90;99.90
52879;DHT22;38747;53.140;6.498;2022-12-17T11:22:53;-0.80;99.90
52879;DHT22;38747;53.140;6.498;2022-12-17T11:25:43;-0.80;99.90
52879;DHT22;38747;53.140;6.498;2022-12-17T11:28:34;-0.80;99.90
52879;DHT22;38747;53.140;6.498;2022-12-17T11:34:30;-0.80;99.90
52879;DHT22;38747;53.140;6.498;2022-12-17T11:37:19;-0.80;99.90
52879;DHT22;38747;53.140;6.498;2022-12-17T11:43:24;-0.80;99.90
52879;DHT22;38747;53.140;6.498;2022-12-17T11:52:47;-0.70;99.90
52879;DHT22;38747;53.140;6.498;2022-12-17T12:07:34;-0.40;99.90
52879;DHT22;38747;53.140;6.498;2022-12-17T12:10:26;-0.30;99.90
52879;DHT22;38747;53.140;6.498;2022-12-17T12:13:18;-0.20;99.90
52879;DHT22;38747;53.140;6.498;2022-12-17T12:16:11;-0.20;99.90
52879;DHT22;38747;53.140;6.498;2022-12-17T12:19:36;-0.20;99.90
52879;DHT22;38747;53.140;6.498;2022-12-17T12:22:31;-0.20;99.90
52879;DHT22;38747;53.140;6.498;2022-12-17T12:33:59;-0.20;99.90
52879;DHT22;38747;53.140;6.498;2022-12-17T12:36:44;-0.20;99.90
52879;DHT22;38747;53.140;6.498;2022-12-17T12:39:53;-0.20;99.90
52879;DHT22;38747;53.140;6.498;2022-12-17T12:43:01;-0.10;99.90
52879;DHT22;38747;53.140;6.498;2022-12-17T12:51:27;0.10;99.90
52879;DHT22;38747;53.140;6.498;2022-12-17T12:57:38;0.10;99.90
52879;DHT22;38747;53.140;6.498;2022-12-17T13:03:22;0.10;99.90
52879;DHT22;38747;53.140;6.498;2022-12-17T13:06:08;0.10;99.90
52879;DHT22;38747;53.140;6.498;2022-12-17T13:08:34;0.10;99.90
52879;DHT22;38747;53.140;6.498;2022-12-17T13:11:35;0.10;99.90
52879;DHT22;38747;53.140;6.498;2022-12-17T13:14:09;0.10;99.90
52879;DHT22;38747;53.140;6.498;2022-12-17T13:16:52;0.10;99.90
52879;DHT22;38747;53.140;6.498;2022-12-17T13:19:32;0.10;99.90
52879;DHT22;38747;53.140;6.498;2022-12-17T13:22:29;0.00;99.90
52879;DHT22;38747;53.140;6.498;2022-12-17T13:25:12;-0.10;99.90
52879;DHT22;38747;53.140;6.498;2022-12-17T13:27:40;-0.10;99.90
52879;DHT22;38747;53.140;6.498;2022-12-17T13:35:42;0.00;99.90
52879;DHT22;38747;53.140;6.498;2022-12-17T13:43:30;-0.10;99.90
52879;DHT22;38747;53.140;6.498;2022-12-17T13:45:56;-0.10;99.90
52879;DHT22;38747;53.140;6.498;2022-12-17T13:48:24;-0.10;99.90
52879;DHT22;38747;53.140;6.498;2022-12-17T13:50:54;-0.20;99.90
52879;DHT22;38747;53.140;6.498;2022-12-17T13:53:20;-0.20;99.90
52879;DHT22;38747;53.140;6.498;2022-12-17T13:55:51;-0.20;99.90
52879;DHT22;38747;53.140;6.498;2022-12-17T13:58:30;-0.30;99.90
52879;DHT22;38747;53.140;6.498;2022-12-17T14:01:14;-0.30;99.90
52879;DHT22;38747;53.140;6.498;2022-12-17T14:03:47;-0.40;99.90
52879;DHT22;38747;53.140;6.498;2022-12-17T14:06:13;-0.40;99.90
52879;DHT22;38747;53.140;6.498;2022-12-17T14:08:40;-0.50;99.90
52879;DHT22;38747;53.140;6.498;2022-12-17T14:11:06;-0.50;99.90
52879;DHT22;38747;53.140;6.498;2022-12-17T14:13:50;-0.50;99.90
52879;DHT22;38747;53.140;6.498;2022-12-17T14:16:17;-0.50;99.90
52879;DHT22;38747;53.140;6.498;2022-12-17T14:18:53;-0.60;99.90
52879;DHT22;38747;53.140;6.498;2022-12-17T14:21:21;-0.60;99.90
52879;DHT22;38747;53.140;6.498;2022-12-17T14:23:48;-0.60;99.90
52879;DHT22;38747;53.140;6.498;2022-12-17T14:26:15;-0.70;99.90
52879;DHT22;38747;53.140;6.498;2022-12-17T14:28:50;-0.70;99.90
52879;DHT22;38747;53.140;6.498;2022-12-17T14:31:22;-0.80;99.90
52879;DHT22;38747;53.140;6.498;2022-12-17T14:34:03;-0.80;99.90
52879;DHT22;38747;53.140;6.498;2022-12-17T14:36:33;-0.80;99.90
52879;DHT22;38747;53.140;6.498;2022-12-17T14:39:04;-0.90;99.90
52879;DHT22;38747;53.140;6.498;2022-12-17T14:41:37;-0.90;99.90
52879;DHT22;38747;53.140;6.498;2022-12-17T14:44:24;-0.90;99.90
52879;DHT22;38747;53.140;6.498;2022-12-17T14:47:06;-1.00;99.90
52879;DHT22;38747;53.140;6.498;2022-12-17T14:49:33;-1.00;99.90
52879;DHT22;38747;53.140;6.498;2022-12-17T14:51:59;-1.00;99.90
52879;DHT22;38747;53.140;6.498;2022-12-17T14:54:35;-1.10;99.90
52879;DHT22;38747;53.140;6.498;2022-12-17T14:57:04;-1.10;99.90
52879;DHT22;38747;53.140;6.498;2022-12-17T14:59:35;-1.20;99.90
52879;DHT22;38747;53.140;6.498;2022-12-17T15:04:38;-1.20;99.90
52879;DHT22;38747;53.140;6.498;2022-12-17T15:07:05;-1.30;99.90
52879;DHT22;38747;53.140;6.498;2022-12-17T15:09:38;-1.30;99.90
52879;DHT22;38747;53.140;6.498;2022-12-17T15:12:05;-1.30;99.90
52879;DHT22;38747;53.140;6.498;2022-12-17T15:14:30;-1.30;99.90
52879;DHT22;38747;53.140;6.498;2022-12-17T15:16:56;-1.40;99.90
52879;DHT22;38747;53.140;6.498;2022-12-17T15:19:23;-1.40;99.90
52879;DHT22;38747;53.140;6.498;2022-12-17T15:21:49;-1.50;99.90
52879;DHT22;38747;53.140;6.498;2022-12-17T15:24:17;-1.40;99.90
52879;DHT22;38747;53.140;6.498;2022-12-17T15:26:43;-1.50;99.90
52879;DHT22;38747;53.140;6.498;2022-12-17T15:29:09;-1.50;99.90
52879;DHT22;38747;53.140;6.498;2022-12-17T15:31:35;-1.60;99.90
52879;DHT22;38747;53.140;6.498;2022-12-17T15:34:00;-1.60;99.90
52879;DHT22;38747;53.140;6.498;2022-12-17T15:36:26;-1.60;99.90
52879;DHT22;38747;53.140;6.498;2022-12-17T15:38:51;-1.60;99.90
52879;DHT22;38747;53.140;6.498;2022-12-17T15:41:17;-1.70;99.90
52879;DHT22;38747;53.140;6.498;2022-12-17T15:44:02;-1.70;99.90
52879;DHT22;38747;53.140;6.498;2022-12-17T15:46:27;-1.80;99.90
52879;DHT22;38747;53.140;6.498;2022-12-17T15:48:55;-1.80;99.90
52879;DHT22;38747;53.140;6.498;2022-12-17T15:51:21;-1.80;99.90
52879;DHT22;38747;53.140;6.498;2022-12-17T15:53:49;-1.80;99.90
52879;DHT22;38747;53.140;6.498;2022-12-17T15:56:22;-1.90;99.90
52879;DHT22;38747;53.140;6.498;2022-12-17T15:58:48;-1.90;99.90
52879;DHT22;38747;53.140;6.498;2022-12-17T16:01:14;-1.90;99.90
52879;DHT22;38747;53.140;6.498;2022-12-17T16:03:40;-2.00;99.90
52879;DHT22;38747;53.140;6.498;2022-12-17T16:06:06;-2.00;99.90
52879;DHT22;38747;53.140;6.498;2022-12-17T16:08:31;-2.00;99.90
52879;DHT22;38747;53.140;6.498;2022-12-17T16:10:57;-2.00;99.90
52879;DHT22;38747;53.140;6.498;2022-12-17T16:13:23;-2.00;99.90
52879;DHT22;38747;53.140;6.498;2022-12-17T16:15:56;-2.10;99.90
52879;DHT22;38747;53.140;6.498;2022-12-17T16:18:21;-2.10;99.90
52879;DHT22;38747;53.140;6.498;2022-12-17T16:20:48;-2.10;99.90
52879;DHT22;38747;53.140;6.498;2022-12-17T16:23:14;-2.10;99.90
52879;DHT22;38747;53.140;6.498;2022-12-17T16:25:40;-2.10;99.90
52879;DHT22;38747;53.140;6.498;2022-12-17T16:28:06;-2.10;99.90
52879;DHT22;38747;53.140;6.498;2022-12-17T16:30:32;-2.10;99.90
52879;DHT22;38747;53.140;6.498;2022-12-17T16:32:58;-2.20;99.90
52879;DHT22;38747;53.140;6.498;2022-12-17T16:35:25;-2.20;99.90
52879;DHT22;38747;53.140;6.498;2022-12-17T16:37:53;-2.20;99.90
52879;DHT22;38747;53.140;6.498;2022-12-17T16:40:18;-2.30;99.90
52879;DHT22;38747;53.140;6.498;2022-12-17T16:42:44;-2.30;99.90
52879;DHT22;38747;53.140;6.498;2022-12-17T16:45:10;-2.30;99.90
52879;DHT22;38747;53.140;6.498;2022-12-17T16:47:38;-2.30;99.90
52879;DHT22;38747;53.140;6.498;2022-12-17T16:50:04;-2.30;99.90
52879;DHT22;38747;53.140;6.498;2022-12-17T16:52:30;-2.40;99.90
52879;DHT22;38747;53.140;6.498;2022-12-17T16:54:56;-2.30;99.90
52879;DHT22;38747;53.140;6.498;2022-12-17T16:57:21;-2.40;99.90
52879;DHT22;38747;53.140;6.498;2022-12-17T16:59:47;-2.40;99.90
52879;DHT22;38747;53.140;6.498;2022-12-17T17:02:14;-2.40;99.90
52879;DHT22;38747;53.140;6.498;2022-12-17T17:04:39;-2.40;99.90
52879;DHT22;38747;53.140;6.498;2022-12-17T17:07:05;-2.40;99.90
52879;DHT22;38747;53.140;6.498;2022-12-17T17:09:31;-2.40;99.90
52879;DHT22;38747;53.140;6.498;2022-12-17T17:11:57;-2.50;99.90
52879;DHT22;38747;53.140;6.498;2022-12-17T17:14:26;-2.50;99.90
52879;DHT22;38747;53.140;6.498;2022-12-17T17:16:51;-2.50;99.90
52879;DHT22;38747;53.140;6.498;2022-12-17T17:19:18;-2.50;99.90
52879;DHT22;38747;53.140;6.498;2022-12-17T17:21:52;-2.50;99.90
52879;DHT22;38747;53.140;6.498;2022-12-17T17:24:19;-2.50;99.90
52879;DHT22;38747;53.140;6.498;2022-12-17T17:26:46;-2.50;99.90
52879;DHT22;38747;53.140;6.498;2022-12-17T17:29:12;-2.50;99.90
52879;DHT22;38747;53.140;6.498;2022-12-17T17:31:37;-2.50;99.90
52879;DHT22;38747;53.140;6.498;2022-12-17T17:34:08;-2.50;99.90
52879;DHT22;38747;53.140;6.498;2022-12-17T17:36:34;-2.50;99.90
52879;DHT22;38747;53.140;6.498;2022-12-17T17:39:00;-2.50;99.90
52879;DHT22;38747;53.140;6.498;2022-12-17T17:41:28;-2.50;99.90
52879;DHT22;38747;53.140;6.498;2022-12-17T17:43:55;-2.40;99.90
52879;DHT22;38747;53.140;6.498;2022-12-17T17:46:21;-2.40;99.90
52879;DHT22;38747;53.140;6.498;2022-12-17T17:48:48;-2.40;99.90
52879;DHT22;38747;53.140;6.498;2022-12-17T17:51:19;-2.40;99.90
52879;DHT22;38747;53.140;6.498;2022-12-17T17:53:47;-2.40;99.90
52879;DHT22;38747;53.140;6.498;2022-12-17T17:56:25;-2.40;99.90
52879;DHT22;38747;53.140;6.498;2022-12-17T17:58:53;-2.50;99.90
52879;DHT22;38747;53.140;6.498;2022-12-17T18:01:22;-2.50;99.90
52879;DHT22;38747;53.140;6.498;2022-12-17T18:03:47;-2.50;99.90
52879;DHT22;38747;53.140;6.498;2022-12-17T18:06:13;-2.50;99.90
52879;DHT22;38747;53.140;6.498;2022-12-17T18:08:41;-2.50;99.90
52879;DHT22;38747;53.140;6.498;2022-12-17T18:11:09;-2.50;99.90
52879;DHT22;38747;53.140;6.498;2022-12-17T18:13:34;-2.50;99.90
52879;DHT22;38747;53.140;6.498;2022-12-17T18:17:01;-2.50;99.90